Latest Coastal Weather Observations for Dunalley

IDT60701

Issued at 3:51 am EDT Thursday 5 March 2015 (issued every 10 minutes, with the page automatically refreshed every 10 minutes)

About coastal observations | Map of coastal stations | Coastal observations for TAS | Marine services | Other Formats
Station Details ID: 094254 Name: DUNALLEY (STROUD POINT) Lat: -42.90 Lon: 147.79 Height: 12.43 m
Data from the previous 72 hours. | See also: Recent months at Dunalley
Date/Time
EDT
Temp

°C
Wind Pressure Rain
since 9am
mm
Weather Cloud Vis
km
Sea
Height
m
Swell
Dir
 
Speed
knots
Gust
knots
hPa Trend Height
m
Period
s
Dir
05/03:30am 12.1 WSW 26 32 996.5 - - - - - - - - -
05/03:00am 12.1 WSW 24 28 996.3 - 0.0 - - - - - - -
05/02:30am 12.5 WSW 22 29 996.1 - - - - - - - - -
05/02:00am 12.8 WSW 24 29 996.8 - - - - - - - - -
05/01:30am 13.3 WSW 26 31 996.5 - - - - - - - - -
05/01:00am 13.6 WSW 22 27 996.3 - - - - - - - - -
05/12:30am 13.9 W 28 36 995.6 - - - - - - - - -
05/12:20am 14.4 W 14 31 995.9 - - - - - - - - -
05/12:19am 14.7 W 13 26 995.8 - - - - - - - - -
05/12:00am 14.6 WNW 8 12 995.6 - - - - - - - - -
 
Date/Time
EDT
Temp

°C
Wind Pressure Rain
since 9am
mm
Weather Cloud Vis
km
Sea
Height
m
Swell
Dir
 
Speed
knots
Gust
knots
hPa Trend Height
m
Period
s
Dir
04/11:30pm 14.9 WNW 13 18 996.1 - - - - - - - - -
04/11:00pm 15.7 WNW 19 31 996.1 - - - - - - - - -
04/10:58pm 15.8 WNW 20 31 996.0 - - - - - - - - -
04/10:30pm 15.7 WNW 16 21 996.4 - - - - - - - - -
04/10:00pm 15.7 NW 14 24 996.8 - - - - - - - - -
04/09:30pm 15.6 WNW 9 15 997.0 - - - - - - - - -
04/09:00pm 16.2 WNW 16 23 997.2 - 0.0 - - - - - - -
04/08:30pm 16.7 WNW 18 30 997.1 - - - - - - - - -
04/08:19pm 16.8 NW 15 28 997.3 - - - - - - - - -
04/08:00pm 17.4 WNW 11 17 997.4 - - - - - - - - -
04/07:30pm 17.9 W 6 9 997.7 - - - - - - - - -
04/07:00pm 18.6 WNW 13 19 997.9 - - - - - - - - -
04/06:30pm 19.0 WNW 18 25 998.1 - - - - - - - - -
04/06:00pm 19.6 WNW 17 32 998.4 - - - - - - - - -
04/05:44pm 20.7 WNW 16 27 998.6 - - - - - - - - -
04/05:30pm 20.5 WNW 19 28 998.5 - - - - - - - - -
04/05:22pm 20.3 WNW 15 25 998.5 - - - - - - - - -
04/05:00pm 20.6 W 14 19 998.6 - - - - - - - - -
04/04:30pm 21.0 WNW 14 20 998.9 - - - - - - - - -
04/04:00pm 19.8 W 14 20 999.5 - - - - - - - - -
04/03:30pm 20.1 W 19 23 999.6 - - - - - - - - -
04/03:00pm 20.6 W 17 22 999.9 - - - - - - - - -
04/02:30pm 22.1 W 17 23 999.9 - - - - - - - - -
04/02:00pm 21.7 W 17 24 1000.0 - - - - - - - - -
04/01:30pm 21.6 W 18 23 1000.3 - - - - - - - - -
04/01:00pm 21.4 W 22 28 1000.5 - - - - - - - - -
04/12:33pm 22.3 WNW 19 29 1001.0 - - - - - - - - -
04/12:30pm 22.1 WNW 19 27 1001.0 - - - - - - - - -
04/12:00pm 22.2 WNW 16 24 1001.5 - - - - - - - - -
04/11:30am 21.5 WNW 18 23 1001.9 - 0.0 - - - - - - -
04/11:00am 20.1 WNW 18 27 1002.3 - 0.0 - - - - - - -
04/10:30am 18.1 WNW 15 23 1002.4 - 0.0 - - - - - - -
04/10:02am 18.7 NW 15 25 1002.7 - 0.0 - - - - - - -
04/10:00am 18.8 NW 16 25 1002.6 - 0.0 - - - - - - -
04/09:57am 18.3 NW 15 26 1002.6 - 0.0 - - - - - - -
04/09:30am 16.9 NW 12 19 1003.3 - 0.0 - - - - - - -
04/09:00am 16.9 NW 11 18 1003.5 - 0.0 - - - - - - -
04/08:30am 16.0 NW 12 20 1003.6 - 0.0 - - - - - - -
04/08:00am 15.6 NW 11 18 1003.7 - 0.0 - - - - - - -
04/07:30am 15.4 NW 13 18 1003.7 - 0.0 - - - - - - -
04/07:00am 15.2 NW 12 19 1004.0 - 0.0 - - - - - - -
04/06:30am 15.0 NW 10 17 1003.9 - 0.0 - - - - - - -
04/06:00am 14.7 WNW 8 12 1004.3 - 0.0 - - - - - - -
04/05:30am 14.4 NW 11 17 1004.4 - 0.0 - - - - - - -
04/05:00am 14.7 NW 12 21 1004.8 - 0.0 - - - - - - -
04/04:30am 14.3 NW 12 20 1004.9 - 0.0 - - - - - - -
04/04:00am 13.9 WNW 8 12 1005.3 - 0.0 - - - - - - -
04/03:30am 13.5 NW 5 21 1005.5 - 0.0 - - - - - - -
04/03:00am 13.4 NW 6 9 1006.0 - 0.0 - - - - - - -
04/02:30am 12.5 NW 3 5 1006.9 - 0.0 - - - - - - -
04/02:00am 12.7 NW 5 9 1007.3 - 0.0 - - - - - - -
04/01:30am 12.4 NW 5 8 1008.0 - 0.0 - - - - - - -
04/01:00am 12.5 NW 8 11 1008.2 - 0.0 - - - - - - -
04/12:30am 12.7 WNW 8 13 1008.7 - 0.0 - - - - - - -
04/12:00am 13.3 WNW 14 21 1009.2 - 0.0 - - - - - - -
 
Date/Time
EDT
Temp

°C
Wind Pressure Rain
since 9am
mm
Weather Cloud Vis
km
Sea
Height
m
Swell
Dir
 
Speed
knots
Gust
knots
hPa Trend Height
m
Period
s
Dir
03/11:30pm 13.6 WNW 11 19 1009.3 - 0.0 - - - - - - -
03/11:00pm 14.1 W 10 16 1009.9 - 0.0 - - - - - - -
03/10:30pm 14.3 WNW 8 12 1010.0 - 0.0 - - - - - - -
03/10:00pm 14.1 NNW 7 11 1010.1 - 0.0 - - - - - - -
03/09:30pm 14.0 N 6 8 1010.0 - 0.0 - - - - - - -
03/09:00pm 14.9 NNE 9 11 1010.0 - 0.0 - - - - - - -
03/08:30pm 15.3 NE 12 15 1010.0 - 0.0 - - - - - - -
03/08:00pm 15.6 NE 13 17 1010.0 - 0.0 - - - - - - -
03/07:30pm 15.9 NE 15 18 1010.3 - 0.0 - - - - - - -
03/07:00pm 16.1 NE 16 20 1010.4 - 0.0 - - - - - - -
03/06:30pm 16.3 NE 16 20 1010.6 - 0.0 - - - - - - -
03/06:00pm 16.6 ENE 18 23 1010.6 - 0.0 - - - - - - -
03/05:30pm 16.3 ENE 17 20 1011.0 - 0.0 - - - - - - -
03/05:00pm 17.8 NE 16 19 1011.2 - 0.0 - - - - - - -
03/04:30pm 18.6 NE 13 16 1011.3 - 0.0 - - - - - - -
03/04:00pm 18.4 NE 12 15 1011.5 - 0.0 - - - - - - -
03/03:30pm 18.1 S 9 13 1011.8 - 0.0 - - - - - - -
03/03:00pm 19.1 SSW 4 6 1012.0 - 0.0 - - - - - - -
03/02:30pm 18.4 SW 4 5 1012.5 - 0.0 - - - - - - -
03/02:00pm 18.1 SW 4 7 1012.8 - 0.0 - - - - - - -
03/01:30pm 16.9 SW 6 7 1013.2 - 0.0 - - - - - - -
03/01:00pm 17.2 SW 7 9 1013.6 - 0.0 - - - - - - -
03/12:30pm 17.9 SW 10 13 1014.1 - 0.0 - - - - - - -
03/12:00pm 17.3 SW 10 13 1014.5 - 0.0 - - - - - - -
03/11:30am 17.5 SW 10 13 1014.7 - 0.0 - - - - - - -
03/11:00am 17.5 SW 9 12 1014.6 - 0.0 - - - - - - -
03/10:30am 16.2 SW 10 13 1014.6 - 0.0 - - - - - - -
03/10:00am 15.1 S 3 4 1014.6 - 0.0 - - - - - - -
03/09:30am 14.7 S 4 5 1014.4 - 0.0 - - - - - - -
03/09:00am 14.4 S 5 7 1014.3 - - - - - - - - -
03/08:30am 14.2 S 5 7 1014.1 - - - - - - - - -
03/08:00am 13.7 S 5 7 1014.1 - - - - - - - - -
03/07:30am 13.2 S 7 10 1013.6 - - - - - - - - -
03/07:00am 13.2 S 7 9 1013.2 - - - - - - - - -
03/06:30am 13.0 S 4 6 1012.6 - - - - - - - - -
03/06:00am 13.8 SW 10 12 1012.2 - - - - - - - - -
03/05:30am 14.2 W 7 9 1011.7 - - - - - - - - -
03/05:00am 14.0 WNW 7 12 1011.4 - - - - - - - - -
03/04:30am 14.1 NW 6 11 1011.3 - - - - - - - - -
03/04:00am 14.1 NW 6 11 1011.1 - - - - - - - - -
03/03:30am 13.5 NNW 8 11 1011.1 - - - - - - - - -
03/03:00am 12.6 NNW 6 9 1011.2 - - - - - - - - -
03/02:30am 12.5 NNW 5 8 1011.4 - - - - - - - - -
03/02:00am 12.3 NW 5 8 1011.5 - - - - - - - - -
03/01:30am 12.4 NW 5 7 1011.9 - - - - - - - - -
03/01:00am 12.8 NW 7 9 1012.3 - - - - - - - - -
03/12:30am 13.9 WNW 7 12 1012.8 - 0.0 - - - - - - -
03/12:00am 13.6 SW 9 13 1012.4 - 0.0 - - - - - - -
 
Date/Time
EDT
Temp

°C
Wind Pressure Rain
since 9am
mm
Weather Cloud Vis
km
Sea
Height
m
Swell
Dir
 
Speed
knots
Gust
knots
hPa Trend Height
m
Period
s
Dir
02/11:30pm 13.1 S 4 8 1012.7 - 0.0 - - - - - - -
02/11:00pm 14.5 S 5 7 1012.6 - 0.0 - - - - - - -
02/10:30pm 14.8 S 8 11 1012.4 - 0.0 - - - - - - -
02/10:00pm 14.7 SSW 6 10 1012.4 - 0.0 - - - - - - -
02/09:30pm 15.0 SSW 11 14 1011.8 - 0.0 - - - - - - -
02/09:00pm 15.6 W 8 10 1011.3 - 0.0 - - - - - - -
02/08:30pm 15.2 NNW 5 5 1010.7 - 0.0 - - - - - - -
02/08:00pm 16.3 NNW 5 6 1010.3 - 0.0 - - - - - - -
02/07:30pm 18.7 NNW 6 9 1010.2 - 0.0 - - - - - - -
02/07:00pm 18.9 N 7 13 1009.9 - 0.0 - - - - - - -
02/06:30pm 19.3 N 8 13 1009.5 - 0.0 - - - - - - -
02/06:00pm 18.4 NNE 9 14 1010.0 - 0.0 - - - - - - -
02/05:30pm 18.2 NE 14 18 1010.2 - 0.0 - - - - - - -
02/05:00pm 18.1 NNE 14 17 1010.7 - 0.0 - - - - - - -
02/04:30pm 18.2 NE 17 21 1011.0 - 0.0 - - - - - - -
02/04:00pm 18.2 NE 20 25 1011.3 - 0.0 - - - - - - -
02/03:30pm 18.2 NE 19 24 1011.8 - 0.0 - - - - - - -
02/03:00pm 18.3 NE 19 23 1012.5 - 0.0 - - - - - - -
02/02:30pm 17.8 NE 21 25 1013.1 - 0.0 - - - - - - -
02/02:00pm 17.5 NE 23 28 1013.4 - 0.0 - - - - - - -
02/01:30pm 17.4 NE 22 27 1014.1 - 0.0 - - - - - - -
02/01:00pm 17.3 NE 20 25 1014.8 - 0.0 - - - - - - -
02/12:30pm 16.5 NE 17 22 1015.9 - 0.0 - - - - - - -
02/12:00pm 15.8 NE 16 19 1016.9 - 0.0 - - - - - - -
02/11:30am 15.5 NE 13 17 1017.6 - 0.0 - - - - - - -
02/11:00am 15.5 ENE 10 14 1018.1 - 0.0 - - - - - - -
02/10:30am 15.0 ENE 10 12 1018.2 - 0.0 - - - - - - -
02/10:00am 13.9 NW 5 8 1018.4 - 0.0 - - - - - - -
02/09:30am 13.4 NW 3 5 1018.6 - 0.0 - - - - - - -
02/09:00am 12.7 NW 3 4 1018.7 - 0.0 - - - - - - -
02/08:30am 11.6 NW 5 8 1019.0 - 0.0 - - - - - - -
02/08:00am 11.1 NW 4 7 1018.7 - 0.0 - - - - - - -
02/07:30am 10.8 NW 5 7 1018.5 - 0.0 - - - - - - -
02/07:00am 10.5 WNW 5 6 1018.3 - 0.0 - - - - - - -
02/06:30am 9.9 WNW 6 7 1018.4 - 0.0 - - - - - - -
02/06:00am 9.9 WNW 5 7 1018.1 - 0.0 - - - - - - -
02/05:30am 9.6 WNW 5 6 1018.3 - 0.0 - - - - - - -
02/05:00am 11.4 SW 9 12 1018.0 - 0.0 - - - - - - -
02/04:30am 11.6 SW 10 13 1017.9 - 0.0 - - - - - - -
02/04:00am 11.6 SW 11 14 1018.0 - 0.0 - - - - - - -

Other Formats:

Comma delimited format used in spreadsheet applications
http://www.bom.gov.au/fwo/IDT60701/IDT60701.94951.axf

JavaScript Object Notation format (JSON) in row-major order
http://www.bom.gov.au/fwo/IDT60701/IDT60701.94951.json